Glendive, MT

6:18 PM MDT on June 02, 2015 (GMT -0600)
Sidney-Richland Municipal | | Change Station
CLOSE
Current Station
Airport
Location: Sidney-Richland,
Elevation: 1985 ft
Nearby Weather Stations

Elev 1985 ft 47.71 °N, 104.19 °W | Updated 3 minutes ago

Overcast
Overcast
59 °F
Feels Like 59 °F
N
21
Wind Variable Wind from North
Gusts 24 mph

Today
High -- | Low -- °F
--% Chance of Precip.
Yesterday
High -- | Low -- °F
Precip. -- in
5:06 AM 8:47 PM
Full, 100% visible
Pressure 29.84 in
Visibility 10.0 miles
Clouds Scattered Clouds 1100 ft
Mostly Cloudy 2200 ft
Overcast 3300 ft
Dew Point 54 °F
Humidity 82%
Rainfall 5.27 in
Snow Depth Not available.
UV 1 out of 12
Pollen 5.20 out of 12
Air Quality Not available.
Flu Activity Sporadic
METAR KSDY 030015Z AUTO 35018G21KT 10SM SCT011 BKN022 OVC033 15/12 A2984 RMK AO1

More Conditions Fewer Conditions

Pressure 29.84 in
Visibility 10.0 miles
Clouds Scattered Clouds 1100 ft
Mostly Cloudy 2200 ft
Overcast 3300 ft
Dew Point 54 °F
Humidity 82%
Rainfall 5.27 in
Snow Depth Not available.
UV 1 out of 12
Pollen 5.20 out of 12
Air Quality Not available.
Flu Activity Sporadic
METAR KSDY 030015Z AUTO 35018G21KT 10SM SCT011 BKN022 OVC033 15/12 A2984 RMK AO1

More Conditions Fewer Conditions

10-Day Weather Forecast

×

Almanac

Astronomy

Jun. 02, 2015 Rise Set
Actual Time
Civil Twilight
Nautical Twilight
Astronomical Twilight
Moon
Length of Visible Light
Length of Day
Tomorrow will be .
, % of the Moon is Illuminated

Today's Extremes

State Highs State Lows

Community

WunderPhotos

Upload Photos

1,826,074 photos uploaded!

WunderBlogs® & News

Nearby

Air Quality

  Air Quality AQ Index Pollutant
Not available.

Snow Depth

Station Depth Elevation

Earthquake Activity

City Distance Mag. Time & Date
Minimum magnitude displayed is 2.5.

Coastal Water Temperatures

Place Temperature

Stations

Nearby Weather Stations

Station Location Temp. Windchill Dew Point Humidity Wind Precip. Elev Updated Type